sensor_id;sensor_type;location;lat;lon;timestamp;P1;durP1;ratioP1;P2;durP2;ratioP2
45077;SDS011;60508;42.622;25.416;2024-03-29T00:01:20;47.47;;;6.30;;
45077;SDS011;60508;42.622;25.416;2024-03-29T00:03:47;36.67;;;7.55;;
45077;SDS011;60508;42.622;25.416;2024-03-29T00:06:13;46.40;;;8.63;;
45077;SDS011;60508;42.622;25.416;2024-03-29T00:08:39;43.08;;;8.35;;
45077;SDS011;60508;42.622;25.416;2024-03-29T00:11:06;47.90;;;8.10;;
45077;SDS011;60508;42.622;25.416;2024-03-29T00:13:32;36.72;;;7.47;;
45077;SDS011;60508;42.622;25.416;2024-03-29T00:16:19;47.05;;;8.48;;
45077;SDS011;60508;42.622;25.416;2024-03-29T00:18:48;47.75;;;11.15;;
45077;SDS011;60508;42.622;25.416;2024-03-29T00:21:34;45.95;;;11.32;;
45077;SDS011;60508;42.622;25.416;2024-03-29T00:24:01;35.38;;;8.52;;
45077;SDS011;60508;42.622;25.416;2024-03-29T00:26:27;40.13;;;7.30;;
45077;SDS011;60508;42.622;25.416;2024-03-29T00:29:13;35.00;;;7.35;;
45077;SDS011;60508;42.622;25.416;2024-03-29T00:31:40;32.65;;;7.75;;
45077;SDS011;60508;42.622;25.416;2024-03-29T00:34:06;39.25;;;6.70;;
45077;SDS011;60508;42.622;25.416;2024-03-29T00:36:53;35.85;;;8.48;;
45077;SDS011;60508;42.622;25.416;2024-03-29T00:39:19;34.13;;;5.88;;
45077;SDS011;60508;42.622;25.416;2024-03-29T00:42:05;48.25;;;8.18;;
45077;SDS011;60508;42.622;25.416;2024-03-29T00:44:34;35.65;;;7.38;;
45077;SDS011;60508;42.622;25.416;2024-03-29T00:47:01;51.60;;;7.28;;
45077;SDS011;60508;42.622;25.416;2024-03-29T00:49:28;39.72;;;6.95;;
45077;SDS011;60508;42.622;25.416;2024-03-29T00:52:15;32.22;;;6.55;;
45077;SDS011;60508;42.622;25.416;2024-03-29T00:54:42;38.20;;;8.35;;
45077;SDS011;60508;42.622;25.416;2024-03-29T00:57:08;24.77;;;5.53;;
45077;SDS011;60508;42.622;25.416;2024-03-29T00:59:39;29.10;;;7.18;;
45077;SDS011;60508;42.622;25.416;2024-03-29T01:02:25;29.08;;;7.03;;
45077;SDS011;60508;42.622;25.416;2024-03-29T01:04:51;30.48;;;7.13;;
45077;SDS011;60508;42.622;25.416;2024-03-29T01:07:18;31.88;;;6.55;;
45077;SDS011;60508;42.622;25.416;2024-03-29T01:09:44;36.17;;;7.20;;
45077;SDS011;60508;42.622;25.416;2024-03-29T01:12:30;37.72;;;4.88;;
45077;SDS011;60508;42.622;25.416;2024-03-29T01:14:57;36.05;;;6.00;;
45077;SDS011;60508;42.622;25.416;2024-03-29T01:17:44;31.65;;;5.72;;
45077;SDS011;60508;42.622;25.416;2024-03-29T01:20:10;31.83;;;5.50;;
45077;SDS011;60508;42.622;25.416;2024-03-29T01:22:37;36.92;;;6.30;;
45077;SDS011;60508;42.622;25.416;2024-03-29T01:25:24;28.92;;;6.47;;
45077;SDS011;60508;42.622;25.416;2024-03-29T01:27:50;23.15;;;6.07;;
45077;SDS011;60508;42.622;25.416;2024-03-29T01:30:17;28.80;;;6.20;;
45077;SDS011;60508;42.622;25.416;2024-03-29T01:32:43;27.08;;;5.75;;
45077;SDS011;60508;42.622;25.416;2024-03-29T01:35:09;34.78;;;5.30;;
45077;SDS011;60508;42.622;25.416;2024-03-29T01:37:36;30.42;;;5.90;;
45077;SDS011;60508;42.622;25.416;2024-03-29T01:40:02;37.10;;;5.40;;
45077;SDS011;60508;42.622;25.416;2024-03-29T01:42:29;33.97;;;6.53;;
45077;SDS011;60508;42.622;25.416;2024-03-29T01:44:55;25.08;;;5.60;;
45077;SDS011;60508;42.622;25.416;2024-03-29T01:47:21;26.27;;;4.97;;
45077;SDS011;60508;42.622;25.416;2024-03-29T01:49:48;46.88;;;8.88;;
45077;SDS011;60508;42.622;25.416;2024-03-29T01:52:15;26.05;;;5.25;;
45077;SDS011;60508;42.622;25.416;2024-03-29T01:54:43;39.22;;;6.90;;
45077;SDS011;60508;42.622;25.416;2024-03-29T01:57:10;37.05;;;7.72;;
45077;SDS011;60508;42.622;25.416;2024-03-29T01:59:40;28.73;;;5.03;;
45077;SDS011;60508;42.622;25.416;2024-03-29T02:02:08;45.63;;;6.20;;
45077;SDS011;60508;42.622;25.416;2024-03-29T02:04:37;39.87;;;8.20;;
45077;SDS011;60508;42.622;25.416;2024-03-29T02:07:27;39.65;;;8.02;;
45077;SDS011;60508;42.622;25.416;2024-03-29T02:09:59;37.90;;;6.68;;
45077;SDS011;60508;42.622;25.416;2024-03-29T02:12:45;44.92;;;6.65;;
45077;SDS011;60508;42.622;25.416;2024-03-29T02:15:15;33.42;;;6.13;;
45077;SDS011;60508;42.622;25.416;2024-03-29T02:17:42;39.17;;;5.88;;
45077;SDS011;60508;42.622;25.416;2024-03-29T02:20:09;40.25;;;9.60;;
45077;SDS011;60508;42.622;25.416;2024-03-29T02:22:36;42.85;;;7.00;;
45077;SDS011;60508;42.622;25.416;2024-03-29T02:25:12;43.67;;;9.60;;
45077;SDS011;60508;42.622;25.416;2024-03-29T02:27:59;36.60;;;6.13;;
45077;SDS011;60508;42.622;25.416;2024-03-29T02:30:29;24.90;;;6.18;;
45077;SDS011;60508;42.622;25.416;2024-03-29T02:33:20;56.58;;;11.18;;
45077;SDS011;60508;42.622;25.416;2024-03-29T02:35:47;36.20;;;6.80;;
45077;SDS011;60508;42.622;25.416;2024-03-29T02:38:13;42.67;;;6.13;;
45077;SDS011;60508;42.622;25.416;2024-03-29T02:41:00;34.50;;;6.50;;
45077;SDS011;60508;42.622;25.416;2024-03-29T02:43:30;37.28;;;7.93;;
45077;SDS011;60508;42.622;25.416;2024-03-29T02:46:16;26.05;;;5.63;;
45077;SDS011;60508;42.622;25.416;2024-03-29T02:48:42;30.48;;;6.93;;
45077;SDS011;60508;42.622;25.416;2024-03-29T02:51:29;24.30;;;6.38;;
45077;SDS011;60508;42.622;25.416;2024-03-29T02:53:55;19.83;;;4.88;;
45077;SDS011;60508;42.622;25.416;2024-03-29T02:56:21;25.70;;;4.55;;
45077;SDS011;60508;42.622;25.416;2024-03-29T02:59:09;22.83;;;4.25;;
45077;SDS011;60508;42.622;25.416;2024-03-29T03:01:35;24.98;;;3.72;;
45077;SDS011;60508;42.622;25.416;2024-03-29T03:04:22;20.60;;;3.90;;
45077;SDS011;60508;42.622;25.416;2024-03-29T03:06:49;14.45;;;4.38;;
45077;SDS011;60508;42.622;25.416;2024-03-29T03:09:15;19.98;;;3.90;;
45077;SDS011;60508;42.622;25.416;2024-03-29T03:12:00;24.73;;;4.22;;
45077;SDS011;60508;42.622;25.416;2024-03-29T03:14:26;24.60;;;4.97;;
45077;SDS011;60508;42.622;25.416;2024-03-29T03:16:53;24.98;;;3.90;;
45077;SDS011;60508;42.622;25.416;2024-03-29T03:19:19;27.63;;;4.95;;
45077;SDS011;60508;42.622;25.416;2024-03-29T03:21:45;19.75;;;7.13;;
45077;SDS011;60508;42.622;25.416;2024-03-29T03:24:13;24.38;;;3.67;;
45077;SDS011;60508;42.622;25.416;2024-03-29T03:27:00;42.08;;;4.88;;
45077;SDS011;60508;42.622;25.416;2024-03-29T03:29:26;19.65;;;3.35;;
45077;SDS011;60508;42.622;25.416;2024-03-29T03:31:52;33.85;;;4.28;;
45077;SDS011;60508;42.622;25.416;2024-03-29T03:34:39;30.20;;;4.72;;
45077;SDS011;60508;42.622;25.416;2024-03-29T03:37:05;23.48;;;5.20;;
45077;SDS011;60508;42.622;25.416;2024-03-29T03:39:37;15.70;;;4.25;;
45077;SDS011;60508;42.622;25.416;2024-03-29T03:42:19;30.75;;;5.88;;
45077;SDS011;60508;42.622;25.416;2024-03-29T03:44:45;34.13;;;5.25;;
45077;SDS011;60508;42.622;25.416;2024-03-29T03:47:31;43.33;;;4.40;;
45077;SDS011;60508;42.622;25.416;2024-03-29T03:49:58;29.23;;;6.13;;
45077;SDS011;60508;42.622;25.416;2024-03-29T03:52:44;38.88;;;5.38;;
45077;SDS011;60508;42.622;25.416;2024-03-29T03:55:10;29.05;;;5.90;;
45077;SDS011;60508;42.622;25.416;2024-03-29T03:57:37;25.25;;;5.88;;
45077;SDS011;60508;42.622;25.416;2024-03-29T04:00:03;33.60;;;5.93;;
45077;SDS011;60508;42.622;25.416;2024-03-29T04:02:58;38.42;;;5.10;;
45077;SDS011;60508;42.622;25.416;2024-03-29T04:05:24;27.55;;;6.18;;
45077;SDS011;60508;42.622;25.416;2024-03-29T04:07:52;23.42;;;5.75;;
45077;SDS011;60508;42.622;25.416;2024-03-29T04:10:18;25.67;;;7.85;;
45077;SDS011;60508;42.622;25.416;2024-03-29T04:12:44;33.30;;;7.70;;
45077;SDS011;60508;42.622;25.416;2024-03-29T04:15:11;33.97;;;6.68;;
45077;SDS011;60508;42.622;25.416;2024-03-29T04:17:59;37.17;;;6.85;;
45077;SDS011;60508;42.622;25.416;2024-03-29T04:20:25;24.20;;;5.30;;
45077;SDS011;60508;42.622;25.416;2024-03-29T04:23:12;28.23;;;4.75;;
45077;SDS011;60508;42.622;25.416;2024-03-29T04:25:38;16.42;;;3.10;;
45077;SDS011;60508;42.622;25.416;2024-03-29T04:28:04;21.95;;;4.07;;
45077;SDS011;60508;42.622;25.416;2024-03-29T04:30:31;24.60;;;4.63;;
45077;SDS011;60508;42.622;25.416;2024-03-29T04:32:57;26.83;;;5.35;;
45077;SDS011;60508;42.622;25.416;2024-03-29T04:35:25;17.52;;;3.50;;
45077;SDS011;60508;42.622;25.416;2024-03-29T04:38:11;21.95;;;4.35;;
45077;SDS011;60508;42.622;25.416;2024-03-29T04:40:37;23.25;;;3.67;;
45077;SDS011;60508;42.622;25.416;2024-03-29T04:43:04;30.27;;;4.25;;
45077;SDS011;60508;42.622;25.416;2024-03-29T04:45:30;23.25;;;4.82;;
45077;SDS011;60508;42.622;25.416;2024-03-29T04:48:17;16.52;;;3.63;;
45077;SDS011;60508;42.622;25.416;2024-03-29T04:50:43;22.13;;;5.72;;
45077;SDS011;60508;42.622;25.416;2024-03-29T04:53:10;13.90;;;4.10;;
45077;SDS011;60508;42.622;25.416;2024-03-29T04:55:36;22.25;;;3.45;;
45077;SDS011;60508;42.622;25.416;2024-03-29T04:58:03;38.95;;;5.65;;
45077;SDS011;60508;42.622;25.416;2024-03-29T05:00:49;32.28;;;3.70;;
45077;SDS011;60508;42.622;25.416;2024-03-29T05:03:17;22.23;;;5.07;;
45077;SDS011;60508;42.622;25.416;2024-03-29T05:05:44;26.13;;;3.38;;
45077;SDS011;60508;42.622;25.416;2024-03-29T05:08:11;17.45;;;3.17;;
45077;SDS011;60508;42.622;25.416;2024-03-29T05:10:58;23.98;;;4.32;;
45077;SDS011;60508;42.622;25.416;2024-03-29T05:13:24;17.08;;;3.10;;
45077;SDS011;60508;42.622;25.416;2024-03-29T05:15:50;20.90;;;4.30;;
45077;SDS011;60508;42.622;25.416;2024-03-29T05:18:37;30.48;;;4.82;;
45077;SDS011;60508;42.622;25.416;2024-03-29T05:21:03;18.48;;;4.85;;
45077;SDS011;60508;42.622;25.416;2024-03-29T05:23:50;28.45;;;4.95;;
45077;SDS011;60508;42.622;25.416;2024-03-29T05:26:16;28.92;;;5.43;;
45077;SDS011;60508;42.622;25.416;2024-03-29T05:28:43;19.20;;;4.15;;
45077;SDS011;60508;42.622;25.416;2024-03-29T05:31:12;27.65;;;4.93;;
45077;SDS011;60508;42.622;25.416;2024-03-29T05:33:40;19.20;;;3.88;;
45077;SDS011;60508;42.622;25.416;2024-03-29T05:36:07;19.40;;;3.65;;
45077;SDS011;60508;42.622;25.416;2024-03-29T05:38:56;31.02;;;4.78;;
45077;SDS011;60508;42.622;25.416;2024-03-29T05:41:22;24.58;;;6.03;;
45077;SDS011;60508;42.622;25.416;2024-03-29T05:43:49;33.13;;;6.25;;
45077;SDS011;60508;42.622;25.416;2024-03-29T05:46:16;22.20;;;5.75;;
45077;SDS011;60508;42.622;25.416;2024-03-29T05:48:44;25.33;;;7.80;;
45077;SDS011;60508;42.622;25.416;2024-03-29T05:51:10;27.48;;;7.05;;
45077;SDS011;60508;42.622;25.416;2024-03-29T05:53:57;27.65;;;6.93;;
45077;SDS011;60508;42.622;25.416;2024-03-29T05:56:23;16.17;;;5.38;;
45077;SDS011;60508;42.622;25.416;2024-03-29T05:59:10;37.00;;;9.60;;
45077;SDS011;60508;42.622;25.416;2024-03-29T06:01:38;29.95;;;8.05;;
45077;SDS011;60508;42.622;25.416;2024-03-29T06:04:04;34.75;;;10.00;;
45077;SDS011;60508;42.622;25.416;2024-03-29T06:06:39;25.95;;;5.78;;
45077;SDS011;60508;42.622;25.416;2024-03-29T06:09:06;28.05;;;6.03;;
45077;SDS011;60508;42.622;25.416;2024-03-29T06:11:37;29.40;;;8.88;;
45077;SDS011;60508;42.622;25.416;2024-03-29T06:14:07;21.92;;;7.45;;
45077;SDS011;60508;42.622;25.416;2024-03-29T06:16:33;29.98;;;8.35;;
45077;SDS011;60508;42.622;25.416;2024-03-29T06:19:18;36.85;;;7.63;;
45077;SDS011;60508;42.622;25.416;2024-03-29T06:22:04;34.15;;;6.40;;
45077;SDS011;60508;42.622;25.416;2024-03-29T06:24:33;20.67;;;4.55;;
45077;SDS011;60508;42.622;25.416;2024-03-29T06:27:20;27.73;;;4.50;;
45077;SDS011;60508;42.622;25.416;2024-03-29T06:29:49;21.88;;;5.03;;
45077;SDS011;60508;42.622;25.416;2024-03-29T06:32:15;27.52;;;5.20;;
45077;SDS011;60508;42.622;25.416;2024-03-29T06:34:47;23.63;;;5.20;;
45077;SDS011;60508;42.622;25.416;2024-03-29T06:37:33;16.02;;;5.70;;
45077;SDS011;60508;42.622;25.416;2024-03-29T06:40:00;32.92;;;5.57;;
45077;SDS011;60508;42.622;25.416;2024-03-29T06:42:26;32.53;;;7.03;;
45077;SDS011;60508;42.622;25.416;2024-03-29T06:45:12;23.45;;;5.55;;
45077;SDS011;60508;42.622;25.416;2024-03-29T06:47:39;28.95;;;5.97;;
45077;SDS011;60508;42.622;25.416;2024-03-29T06:50:05;22.00;;;4.03;;
45077;SDS011;60508;42.622;25.416;2024-03-29T06:52:52;32.00;;;6.32;;
45077;SDS011;60508;42.622;25.416;2024-03-29T06:55:19;24.42;;;5.30;;
45077;SDS011;60508;42.622;25.416;2024-03-29T06:57:45;32.85;;;6.30;;
45077;SDS011;60508;42.622;25.416;2024-03-29T07:00:12;27.38;;;5.68;;
45077;SDS011;60508;42.622;25.416;2024-03-29T07:02:39;32.13;;;7.22;;
45077;SDS011;60508;42.622;25.416;2024-03-29T07:05:05;29.30;;;6.32;;
45077;SDS011;60508;42.622;25.416;2024-03-29T07:07:33;28.35;;;9.80;;
45077;SDS011;60508;42.622;25.416;2024-03-29T07:10:00;17.15;;;5.47;;
45077;SDS011;60508;42.622;25.416;2024-03-29T07:12:47;27.50;;;5.93;;
45077;SDS011;60508;42.622;25.416;2024-03-29T07:15:18;18.90;;;5.70;;
45077;SDS011;60508;42.622;25.416;2024-03-29T07:17:47;18.33;;;4.03;;
45077;SDS011;60508;42.622;25.416;2024-03-29T07:20:16;24.88;;;5.45;;
45077;SDS011;60508;42.622;25.416;2024-03-29T07:22:43;14.80;;;3.50;;
45077;SDS011;60508;42.622;25.416;2024-03-29T07:25:11;17.20;;;3.97;;
45077;SDS011;60508;42.622;25.416;2024-03-29T07:27:39;19.00;;;4.80;;
45077;SDS011;60508;42.622;25.416;2024-03-29T07:30:27;18.83;;;5.60;;
45077;SDS011;60508;42.622;25.416;2024-03-29T07:32:53;11.18;;;3.75;;
45077;SDS011;60508;42.622;25.416;2024-03-29T07:35:20;10.80;;;2.35;;
45077;SDS011;60508;42.622;25.416;2024-03-29T07:38:06;3.83;;;1.85;;
45077;SDS011;60508;42.622;25.416;2024-03-29T07:40:33;16.63;;;5.07;;
45077;SDS011;60508;42.622;25.416;2024-03-29T07:43:00;13.15;;;3.50;;
45077;SDS011;60508;42.622;25.416;2024-03-29T07:45:27;10.48;;;2.95;;
45077;SDS011;60508;42.622;25.416;2024-03-29T07:47:53;18.95;;;5.38;;
45077;SDS011;60508;42.622;25.416;2024-03-29T07:50:20;12.00;;;4.78;;
45077;SDS011;60508;42.622;25.416;2024-03-29T07:52:46;18.17;;;4.05;;
45077;SDS011;60508;42.622;25.416;2024-03-29T07:55:13;10.32;;;4.10;;
45077;SDS011;60508;42.622;25.416;2024-03-29T07:57:40;11.52;;;3.10;;
45077;SDS011;60508;42.622;25.416;2024-03-29T08:00:07;7.15;;;3.22;;
45077;SDS011;60508;42.622;25.416;2024-03-29T08:02:34;5.22;;;2.03;;
45077;SDS011;60508;42.622;25.416;2024-03-29T08:05:00;5.63;;;1.92;;
45077;SDS011;60508;42.622;25.416;2024-03-29T08:07:47;6.88;;;2.22;;
45077;SDS011;60508;42.622;25.416;2024-03-29T08:10:13;5.90;;;1.52;;
45077;SDS011;60508;42.622;25.416;2024-03-29T08:12:40;5.63;;;1.60;;
45077;SDS011;60508;42.622;25.416;2024-03-29T08:15:06;10.13;;;3.90;;
45077;SDS011;60508;42.622;25.416;2024-03-29T08:17:54;5.18;;;1.23;;
45077;SDS011;60508;42.622;25.416;2024-03-29T08:20:20;3.88;;;1.50;;
45077;SDS011;60508;42.622;25.416;2024-03-29T08:23:08;6.03;;;1.20;;
45077;SDS011;60508;42.622;25.416;2024-03-29T08:25:37;3.90;;;1.17;;
45077;SDS011;60508;42.622;25.416;2024-03-29T08:28:03;1.85;;;1.25;;
45077;SDS011;60508;42.622;25.416;2024-03-29T08:30:30;3.72;;;0.77;;
45077;SDS011;60508;42.622;25.416;2024-03-29T08:33:01;6.20;;;0.60;;
45077;SDS011;60508;42.622;25.416;2024-03-29T08:35:29;1.50;;;1.00;;
45077;SDS011;60508;42.622;25.416;2024-03-29T08:38:16;1.25;;;0.80;;
45077;SDS011;60508;42.622;25.416;2024-03-29T08:40:43;3.38;;;0.98;;
45077;SDS011;60508;42.622;25.416;2024-03-29T08:43:29;4.20;;;0.77;;
45077;SDS011;60508;42.622;25.416;2024-03-29T08:45:56;1.58;;;0.55;;
45077;SDS011;60508;42.622;25.416;2024-03-29T08:48:23;6.03;;;1.40;;
45077;SDS011;60508;42.622;25.416;2024-03-29T08:50:50;2.40;;;0.50;;
45077;SDS011;60508;42.622;25.416;2024-03-29T08:53:37;2.33;;;0.90;;
45077;SDS011;60508;42.622;25.416;2024-03-29T08:56:06;4.47;;;1.58;;
45077;SDS011;60508;42.622;25.416;2024-03-29T08:58:33;4.55;;;2.35;;
45077;SDS011;60508;42.622;25.416;2024-03-29T09:00:59;2.92;;;1.27;;
45077;SDS011;60508;42.622;25.416;2024-03-29T09:03:30;4.45;;;2.05;;
45077;SDS011;60508;42.622;25.416;2024-03-29T09:06:17;6.13;;;1.58;;
45077;SDS011;60508;42.622;25.416;2024-03-29T09:08:47;4.68;;;1.92;;
45077;SDS011;60508;42.622;25.416;2024-03-29T09:11:17;4.85;;;2.00;;
45077;SDS011;60508;42.622;25.416;2024-03-29T09:13:47;4.15;;;1.38;;
45077;SDS011;60508;42.622;25.416;2024-03-29T09:16:17;3.67;;;1.48;;
45077;SDS011;60508;42.622;25.416;2024-03-29T09:19:03;4.25;;;1.15;;
45077;SDS011;60508;42.622;25.416;2024-03-29T09:21:30;9.88;;;1.30;;
45077;SDS011;60508;42.622;25.416;2024-03-29T09:23:57;6.22;;;1.20;;
45077;SDS011;60508;42.622;25.416;2024-03-29T09:26:23;6.15;;;1.42;;
45077;SDS011;60508;42.622;25.416;2024-03-29T09:28:49;4.20;;;1.23;;
45077;SDS011;60508;42.622;25.416;2024-03-29T09:31:16;3.38;;;1.27;;
45077;SDS011;60508;42.622;25.416;2024-03-29T09:33:42;3.85;;;1.33;;
45077;SDS011;60508;42.622;25.416;2024-03-29T09:36:08;5.90;;;1.00;;
45077;SDS011;60508;42.622;25.416;2024-03-29T09:38:57;3.67;;;0.88;;
45077;SDS011;60508;42.622;25.416;2024-03-29T09:41:29;5.43;;;1.10;;
45077;SDS011;60508;42.622;25.416;2024-03-29T09:44:20;2.13;;;0.60;;
45077;SDS011;60508;42.622;25.416;2024-03-29T09:46:48;4.80;;;1.90;;
45077;SDS011;60508;42.622;25.416;2024-03-29T09:49:36;2.42;;;0.70;;
45077;SDS011;60508;42.622;25.416;2024-03-29T09:52:04;2.97;;;0.77;;
45077;SDS011;60508;42.622;25.416;2024-03-29T09:54:32;2.97;;;1.08;;
45077;SDS011;60508;42.622;25.416;2024-03-29T09:56:59;4.68;;;1.35;;
45077;SDS011;60508;42.622;25.416;2024-03-29T09:59:27;4.28;;;0.57;;
45077;SDS011;60508;42.622;25.416;2024-03-29T10:02:15;7.75;;;0.82;;
45077;SDS011;60508;42.622;25.416;2024-03-29T10:07:31;3.17;;;0.65;;
45077;SDS011;60508;42.622;25.416;2024-03-29T10:10:00;2.50;;;0.50;;
45077;SDS011;60508;42.622;25.416;2024-03-29T10:12:34;0.98;;;0.38;;
45077;SDS011;60508;42.622;25.416;2024-03-29T10:15:03;2.08;;;0.60;;
45077;SDS011;60508;42.622;25.416;2024-03-29T10:17:45;1.95;;;0.35;;
45077;SDS011;60508;42.622;25.416;2024-03-29T10:20:12;1.47;;;0.70;;
45077;SDS011;60508;42.622;25.416;2024-03-29T10:22:42;3.50;;;0.60;;
45077;SDS011;60508;42.622;25.416;2024-03-29T10:25:15;4.93;;;1.48;;
45077;SDS011;60508;42.622;25.416;2024-03-29T10:27:42;5.10;;;3.05;;
45077;SDS011;60508;42.622;25.416;2024-03-29T10:30:29;2.30;;;0.73;;
45077;SDS011;60508;42.622;25.416;2024-03-29T10:32:56;3.97;;;0.60;;
45077;SDS011;60508;42.622;25.416;2024-03-29T10:35:33;3.10;;;1.13;;
45077;SDS011;60508;42.622;25.416;2024-03-29T10:38:10;3.45;;;1.20;;
45077;SDS011;60508;42.622;25.416;2024-03-29T10:40:38;2.75;;;0.77;;
45077;SDS011;60508;42.622;25.416;2024-03-29T10:43:28;1.90;;;0.63;;
45077;SDS011;60508;42.622;25.416;2024-03-29T10:45:55;3.25;;;0.57;;
45077;SDS011;60508;42.622;25.416;2024-03-29T10:48:25;4.20;;;0.82;;
45077;SDS011;60508;42.622;25.416;2024-03-29T10:50:55;2.47;;;0.65;;
45077;SDS011;60508;42.622;25.416;2024-03-29T10:53:42;3.50;;;1.00;;
45077;SDS011;60508;42.622;25.416;2024-03-29T10:56:09;3.92;;;0.50;;
45077;SDS011;60508;42.622;25.416;2024-03-29T10:58:38;1.05;;;0.50;;
45077;SDS011;60508;42.622;25.416;2024-03-29T11:01:27;1.90;;;0.98;;
45077;SDS011;60508;42.622;25.416;2024-03-29T11:03:58;3.80;;;1.05;;
45077;SDS011;60508;42.622;25.416;2024-03-29T11:06:37;2.03;;;0.60;;
45077;SDS011;60508;42.622;25.416;2024-03-29T11:09:10;2.40;;;0.50;;
45077;SDS011;60508;42.622;25.416;2024-03-29T11:11:46;3.20;;;0.93;;
45077;SDS011;60508;42.622;25.416;2024-03-29T11:14:42;3.67;;;0.47;;
45077;SDS011;60508;42.622;25.416;2024-03-29T11:17:15;1.42;;;0.55;;
45077;SDS011;60508;42.622;25.416;2024-03-29T11:20:02;2.92;;;0.70;;
45077;SDS011;60508;42.622;25.416;2024-03-29T11:22:30;3.03;;;0.40;;
45077;SDS011;60508;42.622;25.416;2024-03-29T11:24:57;2.28;;;0.77;;
45077;SDS011;60508;42.622;25.416;2024-03-29T11:27:44;2.00;;;0.65;;
45077;SDS011;60508;42.622;25.416;2024-03-29T11:30:16;1.33;;;0.35;;
45077;SDS011;60508;42.622;25.416;2024-03-29T11:32:44;2.00;;;0.60;;
45077;SDS011;60508;42.622;25.416;2024-03-29T11:35:13;4.72;;;0.80;;
45077;SDS011;60508;42.622;25.416;2024-03-29T11:37:41;3.78;;;0.73;;
45077;SDS011;60508;42.622;25.416;2024-03-29T11:40:10;4.07;;;0.50;;
45077;SDS011;60508;42.622;25.416;2024-03-29T11:42:57;3.55;;;0.80;;
45077;SDS011;60508;42.622;25.416;2024-03-29T11:45:24;4.40;;;0.60;;
45077;SDS011;60508;42.622;25.416;2024-03-29T11:48:16;0.85;;;0.40;;
45077;SDS011;60508;42.622;25.416;2024-03-29T11:50:52;1.55;;;0.47;;
45077;SDS011;60508;42.622;25.416;2024-03-29T11:53:39;1.97;;;0.83;;
45077;SDS011;60508;42.622;25.416;2024-03-29T11:56:06;1.23;;;0.75;;
45077;SDS011;60508;42.622;25.416;2024-03-29T11:58:33;2.28;;;0.20;;
45077;SDS011;60508;42.622;25.416;2024-03-29T12:01:01;0.82;;;0.35;;
45077;SDS011;60508;42.622;25.416;2024-03-29T12:03:51;2.38;;;0.85;;
45077;SDS011;60508;42.622;25.416;2024-03-29T12:06:21;4.43;;;0.95;;
45077;SDS011;60508;42.622;25.416;2024-03-29T12:08:47;1.10;;;0.50;;
45077;SDS011;60508;42.622;25.416;2024-03-29T12:11:15;6.40;;;0.75;;
45077;SDS011;60508;42.622;25.416;2024-03-29T12:13:41;2.13;;;0.63;;
45077;SDS011;60508;42.622;25.416;2024-03-29T12:16:10;2.05;;;0.65;;
45077;SDS011;60508;42.622;25.416;2024-03-29T12:18:38;3.38;;;0.63;;
45077;SDS011;60508;42.622;25.416;2024-03-29T12:21:29;2.80;;;0.68;;
45077;SDS011;60508;42.622;25.416;2024-03-29T12:24:00;3.17;;;0.65;;
45077;SDS011;60508;42.622;25.416;2024-03-29T12:26:48;5.10;;;1.48;;
45077;SDS011;60508;42.622;25.416;2024-03-29T12:29:15;1.98;;;0.60;;
45077;SDS011;60508;42.622;25.416;2024-03-29T12:32:02;3.60;;;0.77;;
45077;SDS011;60508;42.622;25.416;2024-03-29T12:34:30;0.52;;;0.40;;
45077;SDS011;60508;42.622;25.416;2024-03-29T12:36:57;2.22;;;0.70;;
45077;SDS011;60508;42.622;25.416;2024-03-29T12:39:24;6.45;;;1.02;;
45077;SDS011;60508;42.622;25.416;2024-03-29T12:44:38;3.20;;;0.60;;
45077;SDS011;60508;42.622;25.416;2024-03-29T12:47:04;4.90;;;1.08;;
45077;SDS011;60508;42.622;25.416;2024-03-29T12:49:31;4.40;;;1.23;;
45077;SDS011;60508;42.622;25.416;2024-03-29T12:52:17;1.27;;;0.60;;
45077;SDS011;60508;42.622;25.416;2024-03-29T12:54:44;2.22;;;0.60;;
45077;SDS011;60508;42.622;25.416;2024-03-29T12:57:10;5.13;;;0.45;;
45077;SDS011;60508;42.622;25.416;2024-03-29T12:59:56;2.92;;;0.60;;
45077;SDS011;60508;42.622;25.416;2024-03-29T13:02:23;1.50;;;0.70;;
45077;SDS011;60508;42.622;25.416;2024-03-29T13:04:49;4.63;;;0.57;;
45077;SDS011;60508;42.622;25.416;2024-03-29T13:07:17;2.08;;;0.38;;
45077;SDS011;60508;42.622;25.416;2024-03-29T13:09:43;4.63;;;0.55;;
45077;SDS011;60508;42.622;25.416;2024-03-29T13:12:09;1.40;;;0.70;;
45077;SDS011;60508;42.622;25.416;2024-03-29T13:14:38;0.65;;;0.40;;
45077;SDS011;60508;42.622;25.416;2024-03-29T13:17:24;1.88;;;0.47;;
45077;SDS011;60508;42.622;25.416;2024-03-29T13:19:51;1.52;;;0.55;;
45077;SDS011;60508;42.622;25.416;2024-03-29T13:22:17;2.10;;;0.93;;
45077;SDS011;60508;42.622;25.416;2024-03-29T13:25:04;1.10;;;0.63;;
45077;SDS011;60508;42.622;25.416;2024-03-29T13:27:31;3.83;;;1.33;;
45077;SDS011;60508;42.622;25.416;2024-03-29T13:29:57;2.80;;;0.40;;
45077;SDS011;60508;42.622;25.416;2024-03-29T13:32:44;4.88;;;0.90;;
45077;SDS011;60508;42.622;25.416;2024-03-29T13:35:11;5.43;;;1.10;;
45077;SDS011;60508;42.622;25.416;2024-03-29T13:37:38;0.70;;;0.63;;
45077;SDS011;60508;42.622;25.416;2024-03-29T13:40:25;2.28;;;0.70;;
45077;SDS011;60508;42.622;25.416;2024-03-29T13:42:51;1.63;;;0.50;;
45077;SDS011;60508;42.622;25.416;2024-03-29T13:45:18;1.02;;;0.77;;
45077;SDS011;60508;42.622;25.416;2024-03-29T13:48:05;5.53;;;1.10;;
45077;SDS011;60508;42.622;25.416;2024-03-29T13:50:31;2.40;;;0.60;;
45077;SDS011;60508;42.622;25.416;2024-03-29T13:52:58;1.80;;;0.57;;
45077;SDS011;60508;42.622;25.416;2024-03-29T13:55:24;1.90;;;0.82;;
45077;SDS011;60508;42.622;25.416;2024-03-29T13:58:12;3.45;;;0.90;;
45077;SDS011;60508;42.622;25.416;2024-03-29T14:00:39;3.63;;;0.75;;
45077;SDS011;60508;42.622;25.416;2024-03-29T14:03:12;5.40;;;0.88;;
45077;SDS011;60508;42.622;25.416;2024-03-29T14:05:47;3.55;;;0.60;;
45077;SDS011;60508;42.622;25.416;2024-03-29T14:08:14;2.38;;;1.10;;
45077;SDS011;60508;42.622;25.416;2024-03-29T14:10:41;2.25;;;0.60;;
45077;SDS011;60508;42.622;25.416;2024-03-29T14:13:08;4.65;;;1.05;;
45077;SDS011;60508;42.622;25.416;2024-03-29T14:15:35;2.92;;;0.88;;
45077;SDS011;60508;42.622;25.416;2024-03-29T14:18:01;2.30;;;0.95;;
45077;SDS011;60508;42.622;25.416;2024-03-29T14:20:28;3.67;;;0.88;;
45077;SDS011;60508;42.622;25.416;2024-03-29T14:23:15;3.80;;;1.23;;
45077;SDS011;60508;42.622;25.416;2024-03-29T14:25:45;2.35;;;0.75;;
45077;SDS011;60508;42.622;25.416;2024-03-29T14:28:11;1.20;;;0.43;;
45077;SDS011;60508;42.622;25.416;2024-03-29T14:30:38;4.90;;;0.77;;
45077;SDS011;60508;42.622;25.416;2024-03-29T14:33:04;2.22;;;0.60;;
45077;SDS011;60508;42.622;25.416;2024-03-29T14:35:34;3.60;;;1.05;;
45077;SDS011;60508;42.622;25.416;2024-03-29T14:38:01;1.48;;;0.60;;
45077;SDS011;60508;42.622;25.416;2024-03-29T14:40:47;1.98;;;0.60;;
45077;SDS011;60508;42.622;25.416;2024-03-29T14:43:17;2.28;;;0.63;;
45077;SDS011;60508;42.622;25.416;2024-03-29T14:45:47;1.40;;;0.50;;
45077;SDS011;60508;42.622;25.416;2024-03-29T14:51:02;1.58;;;0.90;;
45077;SDS011;60508;42.622;25.416;2024-03-29T14:53:52;4.47;;;0.82;;
45077;SDS011;60508;42.622;25.416;2024-03-29T14:56:22;5.88;;;0.60;;
45077;SDS011;60508;42.622;25.416;2024-03-29T14:58:50;6.82;;;0.40;;
45077;SDS011;60508;42.622;25.416;2024-03-29T15:01:16;5.65;;;2.92;;
45077;SDS011;60508;42.622;25.416;2024-03-29T15:03:43;6.85;;;2.50;;
45077;SDS011;60508;42.622;25.416;2024-03-29T15:06:09;3.67;;;1.08;;